Time;durP1;ratioP1;P1;durP2;ratioP2;P2;SDS_P1;SDS_P2;PMS_P1;PMS_P2;Temp;Humidity;BMP_temperature;BMP_pressure;BME280_temperature;BME280_humidity;BME280_pressure;Samples;Min_cycle;Max_cycle;Signal;HPM_P1;HPM_P2
2023/01/18 00:01:07;;;;;;;9.23;2.20;;;;;;;14.08;55.55;97907.75;4944445;28;20026;-90
2023/01/18 00:03:33;;;;;;;7.38;2.05;;;;;;;14.07;55.40;97893.44;4944754;28;20134;-92
2023/01/18 00:06:02;;;;;;;6.75;2.33;;;;;;;14.26;55.46;97919.28;4940721;28;20043;-91
2023/01/18 00:08:28;;;;;;;8.20;2.40;;;;;;;14.10;55.30;97891.97;4947661;28;20026;-92
2023/01/18 00:11:00;;;;;;;6.88;2.08;;;;;;;14.19;55.40;97911.66;4958591;28;20039;-92
2023/01/18 00:13:25;;;;;;;5.55;1.75;;;;;;;14.15;55.45;97899.91;4957274;28;20034;-92
2023/01/18 00:15:52;;;;;;;5.00;1.80;;;;;;;14.24;55.68;97914.19;4947844;28;20034;-92
2023/01/18 00:18:17;;;;;;;6.68;1.52;;;;;;;14.15;55.69;97910.72;4973514;28;20069;-92
2023/01/18 00:20:43;;;;;;;4.18;1.77;;;;;;;14.08;55.78;97886.09;4961982;28;20050;-92
2023/01/18 00:23:08;;;;;;;6.60;2.47;;;;;;;14.11;56.01;97898.97;4962543;28;20030;-92
2023/01/18 00:25:34;;;;;;;9.20;2.05;;;;;;;14.15;56.05;97922.38;4977594;28;20101;-92
2023/01/18 00:28:00;;;;;;;6.03;2.30;;;;;;;14.17;55.94;97918.53;4940440;28;20038;-92
2023/01/18 00:30:26;;;;;;;7.80;2.08;;;;;;;14.09;56.02;97920.97;4942404;28;20039;-92
2023/01/18 00:32:53;;;;;;;5.70;2.05;;;;;;;13.98;56.42;97918.94;4942531;28;20125;-91
2023/01/18 00:35:21;;;;;;;9.73;2.83;;;;;;;13.92;56.38;97915.63;4927572;28;20092;-92
2023/01/18 00:37:47;;;;;;;5.82;2.50;;;;;;;14.11;56.31;97929.56;4930464;28;20031;-92
2023/01/18 00:40:13;;;;;;;6.93;2.05;;;;;;;13.93;56.52;97907.19;4943013;28;20042;-92
2023/01/18 00:45:22;;;;;;;5.75;2.20;;;;;;;14.04;56.52;97904.91;4971057;28;20038;-91
2023/01/18 00:47:47;;;;;;;4.60;2.05;;;;;;;13.89;57.00;97930.59;4973907;28;20034;-92
2023/01/18 00:50:13;;;;;;;8.27;2.08;;;;;;;13.91;56.59;97906.72;4962151;28;20038;-92
2023/01/18 00:52:45;;;;;;;4.43;1.70;;;;;;;13.97;56.47;97909.25;4946668;28;20060;-92
2023/01/18 00:55:11;;;;;;;4.63;1.63;;;;;;;13.97;56.45;97903.84;4940047;28;20100;-92
2023/01/18 00:57:37;;;;;;;7.95;2.42;;;;;;;14.00;55.94;97914.00;4958145;28;20031;-92
2023/01/18 01:00:03;;;;;;;6.53;1.98;;;;;;;14.05;56.19;97922.75;4949945;28;20037;-92
2023/01/18 01:02:28;;;;;;;7.05;1.70;;;;;;;14.08;55.90;97921.28;4932036;28;20049;-92
2023/01/18 01:07:38;;;;;;;6.15;1.65;;;;;;;14.07;56.17;97920.50;4954364;28;20093;-91
2023/01/18 01:10:08;;;;;;;6.78;2.15;;;;;;;13.78;56.50;97913.16;4937375;28;20070;-92
2023/01/18 01:26:17;;;;;;;7.00;2.03;;;;;;;13.84;56.95;97917.28;4965166;28;20129;-91
2023/01/18 01:28:44;;;;;;;4.28;1.77;;;;;;;13.80;56.59;97894.69;4930989;28;20408;-91
2023/01/18 01:31:11;;;;;;;8.43;1.88;;;;;;;13.88;56.97;97891.16;4964042;28;20034;-92
2023/01/18 01:33:37;;;;;;;5.53;1.80;;;;;;;13.78;56.93;97896.13;4964248;28;20034;-93
2023/01/18 01:36:07;;;;;;;5.35;1.70;;;;;;;13.79;56.91;97889.59;4951721;28;20109;-92
2023/01/18 01:38:33;;;;;;;6.60;1.83;;;;;;;13.74;56.74;97887.88;4942221;28;20117;-92
2023/01/18 01:41:15;;;;;;;7.65;1.90;;;;;;;13.77;56.94;97883.72;4944805;28;20046;-92
2023/01/18 01:43:50;;;;;;;13.75;2.50;;;;;;;14.03;56.52;97905.22;4947425;28;20042;-92
2023/01/18 01:46:28;;;;;;;9.00;1.88;;;;;;;13.89;56.90;97911.66;4956563;28;20068;-92
2023/01/18 01:49:06;;;;;;;6.43;1.83;;;;;;;13.79;56.85;97878.78;4985418;28;20042;-93
2023/01/18 01:51:32;;;;;;;5.05;1.80;;;;;;;13.91;56.88;97885.09;4942223;28;20043;-92
2023/01/18 01:53:59;;;;;;;9.15;1.40;;;;;;;13.88;56.61;97872.22;4943790;28;20151;-93
2023/01/18 01:56:24;;;;;;;6.32;1.63;;;;;;;13.73;56.83;97870.84;4953866;28;20473;-90
2023/01/18 01:58:51;;;;;;;6.05;2.00;;;;;;;13.75;56.89;97887.53;4975973;28;20049;-92
2023/01/18 02:01:16;;;;;;;10.15;2.30;;;;;;;13.89;56.74;97902.78;4945229;28;20041;-91
2023/01/18 02:03:42;;;;;;;5.65;1.70;;;;;;;13.80;56.99;97905.53;4926736;28;20449;-92
2023/01/18 02:06:15;;;;;;;6.20;1.38;;;;;;;13.78;56.42;97899.66;4956650;28;20093;-92
2023/01/18 02:08:42;;;;;;;11.35;2.35;;;;;;;13.68;57.08;97891.91;4941842;28;20196;-93
2023/01/18 02:11:07;;;;;;;8.32;2.00;;;;;;;13.66;57.00;97884.09;4961595;28;20478;-92
2023/01/18 02:13:33;;;;;;;17.17;2.22;;;;;;;13.77;57.38;97903.44;4947986;28;20034;-92
2023/01/18 02:16:09;;;;;;;8.95;1.98;;;;;;;13.52;57.65;97905.94;4945538;28;20054;-92
2023/01/18 02:18:48;;;;;;;6.22;1.70;;;;;;;13.56;57.60;97899.91;4949701;28;20501;-93
2023/01/18 02:21:18;;;;;;;4.85;1.83;;;;;;;13.55;57.84;97888.28;4948238;28;20026;-92
2023/01/18 02:24:21;;;;;;;5.80;2.53;;;;;;;13.65;57.32;97912.25;4949094;28;20034;-92
2023/01/18 02:26:56;;;;;;;9.85;2.15;;;;;;;13.61;57.37;97899.69;4975753;28;20035;-92
2023/01/18 02:29:39;;;;;;;7.43;1.90;;;;;;;13.66;57.20;97910.34;4980610;28;20030;-92
2023/01/18 02:32:22;;;;;;;8.15;2.13;;;;;;;13.70;57.00;97906.66;4965855;28;20046;-92
2023/01/18 02:34:49;;;;;;;5.97;1.80;;;;;;;13.73;56.82;97894.41;4964095;28;20048;-92
2023/01/18 02:37:20;;;;;;;7.82;1.80;;;;;;;13.69;57.16;97901.56;4948082;28;20424;-92
2023/01/18 02:39:58;;;;;;;15.98;2.55;;;;;;;13.59;56.94;97893.81;4963969;28;20413;-92
2023/01/18 02:48:42;;;;;;;8.63;1.80;;;;;;;13.55;57.14;97901.81;4983576;28;20045;-92
2023/01/18 02:51:07;;;;;;;5.28;1.55;;;;;;;13.60;56.96;97901.63;4950416;28;20122;-92
2023/01/18 02:53:38;;;;;;;5.32;2.03;;;;;;;13.60;56.93;97904.31;4942941;28;20509;-93
2023/01/18 02:56:26;;;;;;;9.90;2.80;;;;;;;13.53;56.96;97901.34;4933353;28;20410;-92
2023/01/18 02:59:17;;;;;;;11.27;4.15;;;;;;;13.58;56.55;97895.75;4948572;28;20035;-93
2023/01/18 03:01:47;;;;;;;12.73;3.15;;;;;;;13.61;57.16;97913.22;4963195;28;20128;-93
2023/01/18 03:04:20;;;;;;;8.00;2.38;;;;;;;13.38;57.80;97894.53;4946754;28;20057;-92
2023/01/18 03:06:47;;;;;;;9.02;2.35;;;;;;;13.45;57.48;97888.66;4959043;28;20536;-92
2023/01/18 03:09:17;;;;;;;5.68;1.70;;;;;;;13.54;57.08;97892.88;4943961;28;20101;-93
2023/01/18 03:12:07;;;;;;;7.72;1.95;;;;;;;13.46;57.47;97901.81;4948533;28;20085;-92
2023/01/18 03:14:54;;;;;;;6.07;2.20;;;;;;;13.58;57.43;97894.97;4975838;28;20085;-92
2023/01/18 03:17:26;;;;;;;7.10;1.70;;;;;;;13.46;57.38;97907.22;4959302;28;20034;-93
2023/01/18 03:20:07;;;;;;;;;;;;;;;13.40;57.62;97897.72;4945538;28;20039;-92
2023/01/18 03:25:30;;;;;;;8.48;1.88;;;;;;;13.35;57.42;97857.34;4969428;28;20120;-92
2023/01/18 03:33:46;;;;;;;7.28;1.92;;;;;;;13.46;57.34;97877.50;4963320;28;20049;-92
2023/01/18 03:36:32;;;;;;;6.32;1.83;;;;;;;13.46;57.53;97871.28;4957267;28;20038;-93
2023/01/18 03:39:06;;;;;;;10.43;2.30;;;;;;;13.25;58.08;97863.06;4956585;28;20043;-92
2023/01/18 03:41:34;;;;;;;9.10;2.30;;;;;;;13.21;57.88;97859.44;4961171;28;20034;-92
2023/01/18 03:44:02;;;;;;;8.65;2.28;;;;;;;13.17;57.99;97859.28;4942767;28;20041;-92
2023/01/18 03:46:28;;;;;;;7.03;2.25;;;;;;;13.33;57.65;97887.41;4948569;28;20046;-92
2023/01/18 03:48:55;;;;;;;7.07;2.28;;;;;;;13.33;57.49;97871.19;4946498;28;20129;-90
2023/01/18 03:51:30;;;;;;;7.00;2.60;;;;;;;13.41;57.63;97879.59;4960175;28;20049;-92
2023/01/18 03:54:21;;;;;;;9.10;2.10;;;;;;;13.33;57.80;97868.47;4951302;28;20068;-92
2023/01/18 03:56:46;;;;;;;7.65;2.30;;;;;;;13.39;58.03;97879.13;4976057;28;20473;-93
2023/01/18 03:59:11;;;;;;;8.48;2.97;;;;;;;13.37;57.75;97871.34;4978896;28;20068;-92
2023/01/18 04:01:37;;;;;;;8.30;2.35;;;;;;;13.28;57.52;97849.72;4941679;28;20046;-92
2023/01/18 04:04:02;;;;;;;13.80;2.40;;;;;;;13.23;57.91;97847.16;4958713;28;20039;-92
2023/01/18 04:06:28;;;;;;;10.63;2.33;;;;;;;13.25;57.64;97846.84;4950812;28;20062;-91
2023/01/18 04:08:54;;;;;;;10.75;2.83;;;;;;;13.33;58.08;97862.28;4962436;28;20049;-92
2023/01/18 04:11:20;;;;;;;5.78;2.13;;;;;;;13.27;57.64;97887.88;4950827;28;20513;-93
2023/01/18 04:13:45;;;;;;;8.23;2.50;;;;;;;13.31;57.99;97897.75;4943322;28;20046;-92
2023/01/18 04:16:10;;;;;;;9.15;2.28;;;;;;;13.30;57.67;97881.84;4951962;28;20046;-92
2023/01/18 04:18:36;;;;;;;6.30;2.00;;;;;;;13.35;57.49;97868.16;4962181;28;20088;-92
2023/01/18 04:21:01;;;;;;;7.25;2.15;;;;;;;13.27;57.87;97855.44;4945824;28;20045;-92
2023/01/18 04:23:28;;;;;;;10.38;2.10;;;;;;;13.33;57.75;97870.38;4947284;28;20054;-92
2023/01/18 04:25:54;;;;;;;9.88;2.20;;;;;;;13.34;57.81;97886.28;4972293;28;20045;-92
2023/01/18 04:28:25;;;;;;;8.25;2.10;;;;;;;13.37;57.57;97882.16;4961466;28;20038;-93
2023/01/18 04:30:54;;;;;;;8.15;2.05;;;;;;;13.40;57.58;97883.41;4973409;28;20474;-92
2023/01/18 04:33:20;;;;;;;5.40;1.55;;;;;;;13.40;57.48;97888.81;4963062;28;20560;-93
2023/01/18 04:35:46;;;;;;;6.18;1.80;;;;;;;13.28;57.67;97868.63;4955234;28;20066;-92
2023/01/18 04:38:12;;;;;;;5.82;1.85;;;;;;;13.25;57.93;97871.19;4942271;28;20053;-93
2023/01/18 04:40:37;;;;;;;8.05;2.15;;;;;;;13.34;57.91;97883.59;4977477;28;20046;-92
2023/01/18 04:43:03;;;;;;;7.13;2.28;;;;;;;13.30;57.79;97888.06;4961985;28;20034;-92
2023/01/18 04:45:29;;;;;;;9.10;1.75;;;;;;;13.30;57.71;97882.66;4960393;28;20034;-93
2023/01/18 04:47:54;;;;;;;10.15;1.92;;;;;;;13.26;57.76;97884.38;4939685;28;20130;-93
2023/01/18 04:50:20;;;;;;;5.57;1.70;;;;;;;13.23;57.86;97905.84;4943430;28;20038;-93
2023/01/18 04:52:45;;;;;;;14.95;2.47;;;;;;;13.20;57.74;97911.88;4951558;28;20049;-95
2023/01/18 04:55:14;;;;;;;9.23;1.90;;;;;;;13.28;57.51;97928.09;4953789;28;20042;-94
2023/01/18 04:57:40;;;;;;;9.43;1.90;;;;;;;13.19;57.46;97892.19;4955535;28;20120;-94
2023/01/18 05:00:07;;;;;;;8.13;2.10;;;;;;;13.28;57.34;97894.84;4928577;28;20039;-94
2023/01/18 05:02:33;;;;;;;12.93;3.53;;;;;;;13.28;56.91;97905.66;4929280;28;20035;-94
2023/01/18 05:04:58;;;;;;;8.90;2.65;;;;;;;13.36;56.59;97915.69;4940631;28;20046;-94
2023/01/18 05:07:24;;;;;;;12.40;3.80;;;;;;;13.35;56.38;97900.59;4945651;28;20049;-94
2023/01/18 05:09:53;;;;;;;11.23;2.85;;;;;;;13.47;56.32;97918.88;4972754;28;20046;-95
2023/01/18 05:12:18;;;;;;;10.13;2.97;;;;;;;13.45;56.35;97918.38;4947092;28;20125;-94
2023/01/18 05:14:44;;;;;;;7.53;3.22;;;;;;;13.44;56.19;97912.16;4974342;28;20034;-93
2023/01/18 05:17:09;;;;;;;13.15;3.17;;;;;;;13.46;55.98;97911.84;4974329;28;20505;-93
2023/01/18 05:19:35;;;;;;;6.13;2.25;;;;;;;13.52;56.34;97926.78;4942515;28;20041;-94
2023/01/18 05:22:00;;;;;;;7.65;3.67;;;;;;;13.45;55.85;97904.88;4970153;28;20049;-96
2023/01/18 05:24:26;;;;;;;7.22;2.80;;;;;;;13.43;55.85;97897.06;4960772;28;20045;-95
2023/01/18 05:26:52;;;;;;;10.95;2.22;;;;;;;13.59;55.96;97912.75;4959073;28;20061;-95
2023/01/18 05:29:17;;;;;;;20.25;3.35;;;;;;;13.65;55.91;97906.84;4944375;28;20081;-96
2023/01/18 05:31:43;;;;;;;14.23;3.20;;;;;;;13.64;55.41;97904.47;4945596;28;20066;-95
2023/01/18 05:34:08;;;;;;;9.30;2.70;;;;;;;13.77;55.22;97903.44;4943886;28;20066;-94
2023/01/18 05:36:34;;;;;;;6.95;2.47;;;;;;;13.68;55.44;97903.50;4958140;28;20457;-92
2023/01/18 05:39:00;;;;;;;9.18;2.92;;;;;;;13.77;55.39;97927.81;4940371;28;20034;-94
2023/01/18 05:41:27;;;;;;;16.20;2.60;;;;;;;13.81;55.16;97922.53;4969677;28;20094;-94
2023/01/18 05:43:52;;;;;;;12.48;2.53;;;;;;;13.81;55.56;97927.94;4962696;28;20062;-94
2023/01/18 05:46:29;;;;;;;8.80;3.00;;;;;;;13.93;55.17;97939.66;4981834;28;20132;-95
2023/01/18 05:48:59;;;;;;;7.30;2.25;;;;;;;13.94;55.40;97945.88;4977215;28;20042;-96
2023/01/18 05:51:29;;;;;;;8.15;2.75;;;;;;;13.92;55.64;97942.69;4964847;28;20039;-96
2023/01/18 05:53:58;;;;;;;10.15;2.40;;;;;;;13.88;55.69;97947.97;4946330;28;20023;-96
2023/01/18 05:56:26;;;;;;;9.35;3.42;;;;;;;13.94;55.85;97941.28;4969056;28;20042;-96
2023/01/18 05:58:52;;;;;;;6.97;3.08;;;;;;;14.14;55.51;97968.69;4945442;28;20022;-96
2023/01/18 06:01:21;;;;;;;7.97;2.75;;;;;;;14.19;55.19;97957.69;4933471;28;20494;-96
2023/01/18 06:03:50;;;;;;;14.27;2.08;;;;;;;14.00;55.09;97951.91;4974162;28;20061;-96
2023/01/18 06:06:16;;;;;;;12.48;2.40;;;;;;;14.19;55.00;97963.09;4938558;29;20059;-96
2023/01/18 06:09:00;;;;;;;16.00;4.82;;;;;;;14.01;55.10;97942.63;4921557;28;20039;-96
2023/01/18 06:11:28;;;;;;;8.10;2.58;;;;;;;14.06;55.11;97962.19;4946922;28;20090;-96
2023/01/18 06:14:00;;;;;;;7.97;2.30;;;;;;;14.01;54.88;97962.41;4944281;29;20051;-96
2023/01/18 06:16:28;;;;;;;13.32;2.50;;;;;;;14.12;54.46;97957.41;4922482;29;20039;-96
2023/01/18 06:18:56;;;;;;;12.45;2.38;;;;;;;14.14;54.57;97961.38;4925933;28;20039;-96
2023/01/18 06:21:23;;;;;;;9.55;2.60;;;;;;;14.19;53.87;97971.22;4926318;29;20047;-96
2023/01/18 06:23:48;;;;;;;8.10;2.13;;;;;;;14.20;53.82;97964.69;4939946;28;20035;-92
2023/01/18 06:26:14;;;;;;;8.43;2.03;;;;;;;14.41;54.26;97982.91;4962416;28;20502;-92
2023/01/18 06:28:44;;;;;;;8.10;2.70;;;;;;;14.48;53.61;97972.31;4945319;28;20033;-90
2023/01/18 06:31:10;;;;;;;9.45;2.67;;;;;;;14.41;53.34;97955.81;4960510;28;20042;-90
2023/01/18 06:33:36;;;;;;;6.75;1.88;;;;;;;14.51;53.51;97971.69;4944162;28;20551;-92
2023/01/18 06:36:16;;;;;;;9.70;1.83;;;;;;;14.55;53.73;97976.13;4957731;28;20031;-92
2023/01/18 06:38:48;;;;;;;9.90;2.50;;;;;;;14.42;53.63;97976.34;4967773;28;20061;-92
2023/01/18 06:41:20;;;;;;;9.20;1.90;;;;;;;14.61;53.48;97992.19;4962875;28;20035;-91
2023/01/18 06:43:46;;;;;;;9.98;1.90;;;;;;;14.62;53.89;98002.69;4960834;28;20027;-91
2023/01/18 06:46:20;;;;;;;7.70;1.92;;;;;;;14.66;53.52;97986.59;4930555;28;20039;-91
2023/01/18 06:48:54;;;;;;;7.22;1.42;;;;;;;14.65;53.33;97999.34;4951197;28;20034;-90
2023/01/18 06:51:30;;;;;;;17.48;6.95;;;;;;;14.67;53.12;97991.69;4956210;28;20091;-92
2023/01/18 06:53:55;;;;;;;11.40;3.45;;;;;;;14.67;53.38;97986.25;4991722;28;20045;-92
2023/01/18 06:56:21;;;;;;;10.27;2.08;;;;;;;14.71;53.34;97989.09;4948022;28;20362;-96
2023/01/18 06:58:47;;;;;;;9.20;2.13;;;;;;;14.83;52.89;97966.69;4941955;28;20066;-96
2023/01/18 07:01:25;;;;;;;15.50;4.50;;;;;;;14.78;52.78;97956.84;4937880;29;20031;-96
2023/01/18 07:13:06;;;;;;;;;;;;;;;;;;;;;
2023/01/18 07:24:20;;;;;;;6.03;1.50;;;;;;;15.35;51.39;98004.19;5037531;23;20054;-96
2023/01/18 07:34:43;;;;;;;6.72;1.90;;;;;;;15.51;50.86;98016.00;5086340;23;20042;-96
2023/01/18 07:37:27;;;;;;;;;;;;;;;15.80;51.04;98032.53;4959125;28;20079;-96
2023/01/18 07:39:53;;;;;;;13.50;1.80;;;;;;;15.77;50.47;98039.38;4960189;29;19998;-95
2023/01/18 07:42:39;;;;;;;16.27;2.78;;;;;;;15.66;50.76;98014.56;4915238;29;20039;-93
2023/01/18 07:45:20;;;;;;;10.00;2.03;;;;;;;15.66;50.12;98013.78;4940038;29;20050;-96
2023/01/18 07:47:48;;;;;;;9.57;1.70;;;;;;;15.81;50.51;98032.16;4951657;29;20039;-96
2023/01/18 07:50:36;;;;;;;9.45;2.28;;;;;;;15.81;50.61;98055.81;4923341;29;20387;-96
2023/01/18 07:53:08;;;;;;;20.77;2.95;;;;;;;15.42;50.98;98015.31;4878741;29;20105;-96
2023/01/18 07:55:40;;;;;;;9.82;1.98;;;;;;;15.45;51.34;98033.63;4877739;29;20044;-96
2023/01/18 07:58:30;;;;;;;6.07;2.28;;;;;;;15.62;50.75;98029.16;4878411;29;20069;-96
2023/01/18 08:01:18;;;;;;;9.02;2.03;;;;;;;15.90;50.25;98045.66;4839705;29;20053;-96
2023/01/18 08:03:44;;;;;;;8.48;2.00;;;;;;;15.75;50.16;98030.81;4921682;23;20048;-96
2023/01/18 08:06:16;;;;;;;9.18;1.35;;;;;;;15.56;50.54;98025.84;4980310;28;20026;-96
2023/01/18 08:09:24;;;;;;;12.37;2.13;;;;;;;15.70;50.77;98028.28;4950448;28;20036;-96
2023/01/18 08:11:56;;;;;;;9.38;1.95;;;;;;;15.81;49.91;98032.16;4953905;28;20023;-96
2023/01/18 08:14:24;;;;;;;;;;;;;;;16.06;49.99;98045.78;4962049;28;20043;-96
2023/01/18 08:16:53;;;;;;;10.05;2.00;;;;;;;15.98;49.43;98019.53;5014430;23;19929;-96
2023/01/18 08:19:19;;;;;;;4.88;1.60;;;;;;;16.04;48.94;98031.75;5109216;23;20058;-93
2023/01/18 08:21:56;;;;;;;12.68;4.28;;;;;;;16.09;49.00;98015.25;4943111;28;20066;-96
2023/01/18 08:24:22;;;;;;;14.23;2.65;;;;;;;16.19;48.22;98009.38;4952541;28;20054;-96
2023/01/18 08:27:16;;;;;;;10.48;1.90;;;;;;;16.05;48.85;98012.41;4951485;28;20505;-95
2023/01/18 08:30:01;;;;;;;12.90;2.85;;;;;;;16.22;48.70;98027.69;4978919;28;20041;-96
2023/01/18 08:32:30;;;;;;;8.15;1.75;;;;;;;16.04;48.91;98018.19;4981787;28;20030;-94
2023/01/18 08:34:55;;;;;;;7.32;2.92;;;;;;;16.05;49.14;98055.84;4949403;28;20091;-94
2023/01/18 08:37:22;;;;;;;25.92;15.35;;;;;;;16.06;48.77;98030.31;4946355;28;20045;-91
2023/01/18 08:39:57;;;;;;;14.00;7.43;;;;;;;16.05;48.87;98034.13;4935249;28;20038;-91
2023/01/18 08:42:25;;;;;;;6.28;2.08;;;;;;;16.15;48.49;98047.28;4940136;28;20058;-93
2023/01/18 08:44:52;;;;;;;12.13;4.07;;;;;;;16.22;48.39;98073.09;4963301;28;20039;-93
2023/01/18 08:47:18;;;;;;;10.15;2.42;;;;;;;16.26;48.85;98058.47;4957020;28;20037;-91
2023/01/18 08:49:45;;;;;;;13.20;3.15;;;;;;;16.20;48.64;98048.97;4959695;28;20354;-93
2023/01/18 08:52:12;;;;;;;7.82;2.30;;;;;;;16.24;48.44;98046.38;4945552;28;20970;-93
2023/01/18 08:54:40;;;;;;;11.65;1.92;;;;;;;16.41;48.52;98056.22;4929310;28;20035;-94
2023/01/18 08:57:08;;;;;;;11.13;2.35;;;;;;;16.39;47.81;98036.75;4937956;28;20046;-91
2023/01/18 08:59:39;;;;;;;7.05;1.80;;;;;;;16.69;47.71;98072.66;4951626;28;20046;-92
2023/01/18 09:02:09;;;;;;;8.85;1.90;;;;;;;16.55;47.52;98045.81;4947519;28;20481;-92
2023/01/18 09:04:35;;;;;;;11.27;4.70;;;;;;;16.82;47.72;98073.47;4945355;28;20033;-92
2023/01/18 09:07:00;;;;;;;12.07;2.35;;;;;;;16.85;47.05;98059.19;4993976;28;20034;-93
2023/01/18 09:09:26;;;;;;;9.88;3.38;;;;;;;16.81;46.40;98055.56;4943552;28;20030;-94
2023/01/18 09:11:55;;;;;;;10.90;2.83;;;;;;;16.92;46.70;98062.91;4947637;28;20034;-94
2023/01/18 09:14:24;;;;;;;5.40;2.10;;;;;;;16.84;46.25;98041.28;4962092;28;20129;-91
2023/01/18 09:17:20;;;;;;;;;;;;;;;;;;;;;
2023/01/18 09:19:49;;;;;;;8.40;2.40;;;;;;;17.06;47.94;98059.03;4970572;28;20045;-92
2023/01/18 09:22:17;;;;;;;12.52;3.58;;;;;;;17.11;45.97;98066.94;4960339;28;20031;-92
2023/01/18 09:24:43;;;;;;;11.20;2.40;;;;;;;16.93;46.20;98042.75;4926141;28;20023;-93
2023/01/18 09:27:09;;;;;;;8.80;3.28;;;;;;;17.15;46.15;98054.25;4944514;28;20030;-95
2023/01/18 09:29:35;;;;;;;17.05;2.75;;;;;;;17.26;45.91;98065.44;4928825;28;20417;-92
2023/01/18 09:32:00;;;;;;;6.80;1.67;;;;;;;17.12;45.83;98035.88;4937282;28;20031;-92
2023/01/18 09:34:26;;;;;;;10.18;2.30;;;;;;;17.31;45.85;98029.84;4929505;28;20050;-93
2023/01/18 09:37:04;;;;;;;;;;;;;;;;;;;;;
2023/01/18 09:40:01;;;;;;;;;;;;;;;;;;;;;
2023/01/18 09:43:18;;;;;;;;;;;;;;;;;;;;;
2023/01/18 09:46:29;;;;;;;6.60;1.88;;;;;;;17.47;44.96;98041.56;4910180;29;20028;-95
2023/01/18 09:49:53;;;;;;;;;;;;;;;;;;;;;
2023/01/18 09:56:14;;;;;;;9.35;2.10;;;;;;;17.69;44.74;98055.75;4923624;29;20040;-96
2023/01/18 09:59:29;;;;;;;;;;;;;;;;;;;;;
2023/01/18 10:02:22;;;;;;;9.60;2.15;;;;;;;17.76;44.80;98056.75;4920619;29;20506;-93
2023/01/18 10:08:24;;;;;;;4.65;1.70;;;;;;;17.51;44.12;98036.97;4922633;29;20043;-95
2023/01/18 10:11:25;;;;;;;5.43;1.63;;;;;;;17.69;43.62;98028.53;4886376;29;20040;-96
2023/01/18 10:14:10;;;;;;;10.98;2.03;;;;;;;17.75;43.56;98021.69;4892462;29;20044;-94
2023/01/18 10:16:36;;;;;;;7.38;2.47;;;;;;;17.70;44.73;98030.09;4908945;29;20038;-93
2023/01/18 10:19:26;;;;;;;16.63;6.15;;;;;;;17.76;44.27;98029.50;4927943;29;20067;-95
2023/01/18 10:22:04;;;;;;;8.60;1.80;;;;;;;17.84;44.55;98052.28;4937768;29;20035;-94
2023/01/18 10:24:53;;;;;;;9.95;1.80;;;;;;;17.91;44.66;98051.69;4941396;29;20039;-94
2023/01/18 10:27:35;;;;;;;11.60;2.28;;;;;;;17.98;45.02;98047.22;4947353;29;20094;-94
2023/01/18 10:30:25;;;;;;;11.60;1.90;;;;;;;17.88;45.25;98052.38;4914731;29;20090;-95
2023/01/18 10:32:52;;;;;;;10.60;2.35;;;;;;;17.71;45.36;98021.59;4954375;28;20066;-96
2023/01/18 10:35:33;;;;;;;11.50;3.22;;;;;;;17.96;45.18;98045.97;4933515;28;20043;-93
2023/01/18 10:38:11;;;;;;;7.63;2.00;;;;;;;17.98;44.36;98043.69;4933247;28;20034;-96
2023/01/18 10:40:36;;;;;;;10.70;2.30;;;;;;;18.17;43.87;98067.53;4934045;28;20035;-94
2023/01/18 10:43:15;;;;;;;7.68;1.92;;;;;;;18.20;44.05;98066.03;4949340;28;20046;-95
2023/01/18 10:45:44;;;;;;;10.13;1.85;;;;;;;17.82;43.74;98032.75;4932839;28;20035;-95
2023/01/18 10:48:19;;;;;;;9.68;2.78;;;;;;;17.96;43.76;98074.00;4966387;28;20118;-95
2023/01/18 10:50:55;;;;;;;15.77;3.10;;;;;;;17.92;43.51;98036.94;4965557;28;20035;-95
2023/01/18 10:53:44;;;;;;;10.23;3.00;;;;;;;17.96;43.58;98059.59;4949350;28;20118;-94
2023/01/18 10:56:16;;;;;;;7.97;2.10;;;;;;;18.02;44.35;98068.31;4941488;29;20035;-96
2023/01/18 10:58:49;;;;;;;9.30;2.80;;;;;;;18.02;43.74;98062.88;4967764;28;20045;-94
2023/01/18 11:01:27;;;;;;;13.38;3.17;;;;;;;17.84;43.66;98051.50;4964010;28;20035;-95
2023/01/18 11:04:24;;;;;;;6.15;2.13;;;;;;;18.28;43.00;98090.41;4933818;28;20081;-95
2023/01/18 11:07:05;;;;;;;10.68;1.90;;;;;;;18.24;42.88;98073.16;4987973;28;20039;-95
2023/01/18 11:09:53;;;;;;;8.60;2.10;;;;;;;18.15;42.18;98069.81;4935962;29;20038;-93
2023/01/18 11:12:47;;;;;;;;;;;;;;;;;;;;;
2023/01/18 11:15:15;;;;;;;16.25;5.18;;;;;;;18.47;42.53;98097.06;4969340;28;20216;-96
2023/01/18 11:20:56;;;;;;;6.28;1.90;;;;;;;18.32;41.31;98065.94;4990768;28;20042;-96
2023/01/18 11:23:37;;;;;;;8.18;1.88;;;;;;;18.37;39.84;98071.94;4967523;28;20031;-94
2023/01/18 11:26:19;;;;;;;9.25;2.88;;;;;;;18.45;41.60;98091.16;4931012;28;20059;-93
2023/01/18 11:29:06;;;;;;;5.75;1.73;;;;;;;18.36;40.84;98073.09;4959836;28;20043;-93
2023/01/18 11:31:44;;;;;;;7.38;2.95;;;;;;;18.33;40.83;98068.31;4944960;28;20441;-93
2023/01/18 11:34:24;;;;;;;9.50;2.85;;;;;;;18.41;42.10;98084.84;4951577;28;20440;-96
2023/01/18 11:36:52;;;;;;;10.60;2.63;;;;;;;18.45;41.10;98085.72;4940459;28;20131;-93
2023/01/18 11:39:25;;;;;;;14.73;5.00;;;;;;;18.18;41.38;98056.28;4934282;29;20031;-93
2023/01/18 11:41:51;;;;;;;11.02;3.42;;;;;;;18.33;40.92;98056.63;4942466;28;20046;-95
2023/01/18 11:44:26;;;;;;;12.60;4.35;;;;;;;18.31;41.62;98070.59;4946198;28;20035;-93
2023/01/18 11:46:53;;;;;;;12.07;5.20;;;;;;;18.20;41.86;98069.56;4959167;28;20070;-95
2023/01/18 11:49:30;;;;;;;10.68;4.50;;;;;;;18.17;41.78;98043.78;4948052;28;20034;-93
2023/01/18 11:52:23;;;;;;;14.38;3.90;;;;;;;18.10;41.97;98043.63;4931386;28;20031;-93
2023/01/18 11:54:59;;;;;;;15.10;5.38;;;;;;;18.14;41.63;98055.41;4965196;28;20123;-95
2023/01/18 11:57:42;;;;;;;14.57;4.28;;;;;;;18.18;41.35;98061.72;4948384;28;20043;-96
2023/01/18 12:00:32;;;;;;;9.13;3.72;;;;;;;18.22;41.75;98069.19;4949435;28;20137;-95
2023/01/18 12:03:19;;;;;;;15.75;5.82;;;;;;;18.32;41.42;98080.38;4965871;28;20030;-95
2023/01/18 12:05:53;;;;;;;15.38;6.03;;;;;;;18.28;41.10;98078.69;4965380;28;20034;-96
2023/01/18 12:08:37;;;;;;;17.92;6.95;;;;;;;18.28;41.32;98084.13;4933392;28;20081;-95
2023/01/18 12:15:12;;;;;;;17.85;7.20;;;;;;;18.11;41.35;98075.16;4907485;29;20043;-95
2023/01/18 12:18:15;;;;;;;7.32;3.25;;;;;;;18.22;40.41;98099.97;4877511;29;20132;-96
2023/01/18 12:20:57;;;;;;;5.70;2.22;;;;;;;18.18;39.66;98096.38;4934753;29;20056;-95
2023/01/18 12:24:12;;;;;;;7.15;2.50;;;;;;;18.25;38.86;98101.19;4959568;28;20450;-96
2023/01/18 12:27:35;;;;;;;8.07;2.30;;;;;;;18.14;38.18;98077.19;4967191;28;20019;-96
2023/01/18 12:38:21;;;;;;;5.30;1.52;;;;;;;18.53;37.59;98093.72;5006692;28;20085;-96
2023/01/18 12:41:24;;;;;;;4.03;1.38;;;;;;;18.64;36.60;98098.66;4993432;28;20516;-95
2023/01/18 12:44:50;;;;;;;;;;;;;;;;;;;;;
2023/01/18 12:48:12;;;;;;;6.55;1.73;;;;;;;18.81;36.36;98102.97;5000365;28;20088;-96
2023/01/18 12:51:23;;;;;;;8.25;1.45;;;;;;;18.66;36.50;98075.34;4991077;28;20062;-96
2023/01/18 12:54:12;;;;;;;6.65;2.60;;;;;;;18.80;36.74;98068.66;4986468;28;20098;-96
2023/01/18 12:56:45;;;;;;;8.23;2.08;;;;;;;18.96;36.02;98075.66;4975209;28;20417;-92
2023/01/18 12:59:45;;;;;;;;;;;;;;;;;;;;;
2023/01/18 13:02:46;;;;;;;6.38;1.60;;;;;;;19.26;36.41;98104.34;4972273;28;20125;-96
2023/01/18 13:05:19;;;;;;;9.80;2.63;;;;;;;19.16;36.82;98098.31;4970584;28;20073;-96
2023/01/18 13:07:59;;;;;;;7.05;1.80;;;;;;;19.37;37.74;98135.41;4953741;28;20066;-95
2023/01/18 13:10:31;;;;;;;6.85;1.40;;;;;;;19.32;38.93;98135.66;4991140;28;20052;-96
2023/01/18 13:13:00;;;;;;;6.53;1.50;;;;;;;19.32;38.84;98138.38;4968672;28;20031;-95
2023/01/18 13:16:01;;;;;;;8.48;2.35;;;;;;;19.28;39.43;98148.44;4959279;28;20035;-95
2023/01/18 13:18:57;;;;;;;7.72;1.83;;;;;;;18.98;40.08;98138.81;4991944;28;20018;-96
2023/01/18 13:21:38;;;;;;;8.70;1.50;;;;;;;19.04;39.74;98161.19;4971026;28;20030;-96
2023/01/18 13:24:57;;;;;;;8.18;1.60;;;;;;;18.91;40.18;98168.66;4974711;28;20038;-96
2023/01/18 13:30:20;;;;;;;11.60;1.60;;;;;;;18.50;40.95;98159.06;5063677;23;20065;-96
2023/01/18 13:33:12;;;;;;;6.03;1.50;;;;;;;18.43;40.97;98159.69;4954074;28;20054;-96
2023/01/18 13:35:37;;;;;;;;;;;;;;;18.62;41.49;98193.63;4965581;28;20047;-95
2023/01/18 13:38:25;;;;;;;8.43;2.53;;;;;;;18.46;41.57;98182.72;4987001;28;19969;-95
2023/01/18 13:41:21;;;;;;;;;;;;;;;;;;;;;
2023/01/18 13:43:52;;;;;;;8.13;2.80;;;;;;;18.44;41.59;98220.41;4973840;28;20054;-94
2023/01/18 13:46:41;;;;;;;10.60;2.30;;;;;;;18.43;41.97;98218.81;4955364;28;20039;-95